Time;durP1;ratioP1;P1;durP2;ratioP2;P2;SDS_P1;SDS_P2;PMS_P1;PMS_P2;Temp;Humidity;BMP_temperature;BMP_pressure;BME280_temperature;BME280_humidity;BME280_pressure;Samples;Min_cycle;Max_cycle;Signal;HPM_P1;HPM_P2
2023/05/05 00:01:37;;;;;;;4.75;3.10;;;;;;;;;;4961372;28;20092;-69
2023/05/05 00:04:02;;;;;;;5.47;2.85;;;;;;;;;;4971981;28;20509;-68
2023/05/05 00:06:28;;;;;;;6.45;3.85;;;;;;;;;;4976575;28;20195;-67
2023/05/05 00:08:54;;;;;;;6.13;3.50;;;;;;;;;;4966097;28;20042;-68
2023/05/05 00:11:19;;;;;;;4.35;2.75;;;;;;;;;;4955742;28;20070;-69
2023/05/05 00:13:45;;;;;;;5.07;3.08;;;;;;;;;;4942519;28;20073;-67
2023/05/05 00:16:11;;;;;;;7.28;4.35;;;;;;;;;;4957660;28;20541;-68
2023/05/05 00:18:36;;;;;;;10.68;3.60;;;;;;;;;;4968431;28;20070;-69
2023/05/05 00:21:03;;;;;;;6.18;3.33;;;;;;;;;;4959394;28;20063;-67
2023/05/05 00:23:28;;;;;;;8.45;3.50;;;;;;;;;;4957945;28;20128;-68
2023/05/05 00:25:54;;;;;;;7.00;3.88;;;;;;;;;;4940273;28;20210;-67
2023/05/05 00:28:19;;;;;;;4.45;3.03;;;;;;;;;;4941127;28;20043;-68
2023/05/05 00:30:45;;;;;;;4.40;2.85;;;;;;;;;;4956153;28;20046;-68
2023/05/05 00:33:11;;;;;;;5.72;3.25;;;;;;;;;;4953330;28;20582;-67
2023/05/05 00:35:36;;;;;;;6.50;3.42;;;;;;;;;;4961817;28;20050;-68
2023/05/05 00:38:02;;;;;;;5.55;3.63;;;;;;;;;;4969532;28;20491;-68
2023/05/05 00:40:28;;;;;;;5.13;3.30;;;;;;;;;;4979102;28;20041;-67
2023/05/05 00:42:53;;;;;;;6.47;3.38;;;;;;;;;;4940724;28;20514;-67
2023/05/05 00:45:19;;;;;;;7.15;3.25;;;;;;;;;;4954211;28;20050;-67
2023/05/05 00:48:03;;;;;;;5.40;3.55;;;;;;;;;;4949317;28;20043;-68
2023/05/05 00:50:30;;;;;;;7.70;3.40;;;;;;;;;;4964669;28;20038;-67
2023/05/05 00:52:59;;;;;;;6.47;3.17;;;;;;;;;;4951883;28;20054;-68
2023/05/05 00:55:25;;;;;;;6.57;3.90;;;;;;;;;;4955401;28;20164;-67
2023/05/05 00:57:50;;;;;;;7.28;3.30;;;;;;;;;;4974573;28;20679;-67
2023/05/05 01:00:16;;;;;;;5.82;3.53;;;;;;;;;;4964453;28;20054;-70
2023/05/05 01:02:43;;;;;;;5.57;3.80;;;;;;;;;;4957681;28;20137;-68
2023/05/05 01:05:09;;;;;;;5.80;3.67;;;;;;;;;;4956407;28;20395;-67
2023/05/05 01:08:15;;;;;;;6.72;3.65;;;;;;;;;;4941127;28;20039;-68
2023/05/05 01:10:56;;;;;;;8.35;4.18;;;;;;;;;;4908820;29;20032;-68
2023/05/05 01:13:24;;;;;;;5.32;3.75;;;;;;;;;;4941617;28;20030;-67
2023/05/05 01:16:00;;;;;;;9.95;4.03;;;;;;;;;;4943428;28;20030;-68
2023/05/05 01:18:46;;;;;;;7.05;4.15;;;;;;;;;;4972389;28;20522;-67
2023/05/05 01:21:14;;;;;;;7.88;4.50;;;;;;;;;;4976248;28;20050;-67
2023/05/05 01:23:48;;;;;;;8.25;4.78;;;;;;;;;;4982195;28;20153;-67
2023/05/05 01:26:47;;;;;;;9.23;4.80;;;;;;;;;;4971298;28;20512;-67
2023/05/05 01:29:43;;;;;;;6.85;4.32;;;;;;;;;;4964962;28;20096;-67
2023/05/05 01:32:20;;;;;;;7.80;4.65;;;;;;;;;;4963892;28;20072;-67
2023/05/05 01:34:53;;;;;;;7.07;4.45;;;;;;;;;;4982871;28;20038;-67
2023/05/05 01:37:26;;;;;;;9.38;4.13;;;;;;;;;;4952060;28;20062;-67
2023/05/05 01:39:56;;;;;;;7.00;4.22;;;;;;;;;;4927640;28;20038;-67
2023/05/05 01:42:23;;;;;;;6.18;3.85;;;;;;;;;;4956955;28;20042;-67
2023/05/05 01:44:52;;;;;;;6.50;4.28;;;;;;;;;;4957939;28;20121;-67
2023/05/05 01:47:19;;;;;;;7.68;3.88;;;;;;;;;;4933362;28;20081;-67
2023/05/05 01:49:46;;;;;;;7.60;4.50;;;;;;;;;;4948146;28;20035;-67
2023/05/05 01:52:13;;;;;;;9.75;4.03;;;;;;;;;;4931606;28;20535;-67
2023/05/05 01:54:40;;;;;;;5.78;3.63;;;;;;;;;;4977714;28;20045;-66
2023/05/05 01:57:07;;;;;;;7.22;3.70;;;;;;;;;;4956410;28;20046;-67
2023/05/05 01:59:34;;;;;;;7.80;4.07;;;;;;;;;;4959821;28;20053;-66
2023/05/05 02:02:01;;;;;;;4.78;3.05;;;;;;;;;;4952879;28;20042;-66
2023/05/05 02:04:30;;;;;;;7.88;3.75;;;;;;;;;;4947339;28;20093;-68
2023/05/05 02:06:57;;;;;;;6.07;3.90;;;;;;;;;;4984930;28;20037;-66
2023/05/05 02:09:24;;;;;;;5.55;3.78;;;;;;;;;;4969668;28;20045;-67
2023/05/05 02:11:51;;;;;;;6.45;4.07;;;;;;;;;;4975531;28;20035;-67
2023/05/05 02:14:18;;;;;;;5.70;3.67;;;;;;;;;;4976916;28;20601;-67
2023/05/05 02:16:45;;;;;;;5.32;3.40;;;;;;;;;;4975062;28;20098;-67
2023/05/05 02:19:13;;;;;;;6.47;3.90;;;;;;;;;;4953425;28;20519;-66
2023/05/05 02:21:40;;;;;;;6.90;4.07;;;;;;;;;;4978278;28;20506;-68
2023/05/05 02:24:06;;;;;;;6.72;3.65;;;;;;;;;;4971085;28;20067;-68
2023/05/05 02:26:34;;;;;;;7.22;3.97;;;;;;;;;;4966513;28;20042;-68
2023/05/05 02:29:16;;;;;;;4.68;3.40;;;;;;;;;;4978957;28;20622;-69
2023/05/05 02:31:44;;;;;;;;;;;;;;;;;;4939689;28;20061;-66
2023/05/05 02:34:10;;;;;;;6.68;3.50;;;;;;;;;;4974828;28;19917;-66
2023/05/05 02:36:38;;;;;;;7.30;3.80;;;;;;;;;;4975754;28;20065;-68
2023/05/05 02:39:11;;;;;;;6.15;4.07;;;;;;;;;;4968493;28;20034;-68
2023/05/05 02:41:38;;;;;;;5.28;3.92;;;;;;;;;;4982318;28;20042;-68
2023/05/05 02:44:06;;;;;;;6.97;4.03;;;;;;;;;;4956391;28;20053;-68
2023/05/05 02:46:32;;;;;;;6.47;3.92;;;;;;;;;;4970900;28;20070;-68
2023/05/05 02:48:58;;;;;;;5.32;3.80;;;;;;;;;;4963718;28;20042;-68
2023/05/05 02:51:24;;;;;;;6.72;3.95;;;;;;;;;;4975339;28;20037;-68
2023/05/05 02:53:51;;;;;;;7.18;3.47;;;;;;;;;;4976365;28;20367;-68
2023/05/05 02:56:39;;;;;;;5.97;3.92;;;;;;;;;;4975145;28;20404;-68
2023/05/05 02:59:30;;;;;;;6.05;3.20;;;;;;;;;;4928897;28;20102;-68
2023/05/05 03:02:14;;;;;;;6.97;3.90;;;;;;;;;;4948531;28;20038;-68
2023/05/05 03:04:48;;;;;;;5.18;3.55;;;;;;;;;;4971659;28;20581;-68
2023/05/05 03:07:36;;;;;;;5.47;4.15;;;;;;;;;;4940654;28;20051;-68
2023/05/05 03:10:07;;;;;;;7.20;3.78;;;;;;;;;;4933225;28;20530;-67
2023/05/05 03:12:44;;;;;;;6.15;4.20;;;;;;;;;;4942508;28;20466;-68
2023/05/05 03:15:10;;;;;;;9.23;3.85;;;;;;;;;;4952279;28;20088;-66
2023/05/05 03:17:36;;;;;;;5.80;4.32;;;;;;;;;;4967864;28;20037;-66
2023/05/05 03:20:04;;;;;;;6.70;3.70;;;;;;;;;;4974543;28;20043;-68
2023/05/05 03:22:30;;;;;;;5.05;3.90;;;;;;;;;;4967136;28;20052;-67
2023/05/05 03:24:55;;;;;;;5.78;3.95;;;;;;;;;;4981581;28;20049;-66
2023/05/05 03:27:21;;;;;;;8.10;3.70;;;;;;;;;;4978701;28;20534;-66
2023/05/05 03:29:46;;;;;;;7.05;3.80;;;;;;;;;;4982749;28;20041;-65
2023/05/05 03:32:11;;;;;;;4.80;3.60;;;;;;;;;;4970715;28;20042;-66
2023/05/05 03:34:37;;;;;;;7.55;3.78;;;;;;;;;;4971904;28;20062;-66
2023/05/05 03:37:02;;;;;;;5.57;3.95;;;;;;;;;;4982985;28;20518;-66
2023/05/05 03:39:28;;;;;;;6.38;4.30;;;;;;;;;;4969733;28;20053;-66
2023/05/05 03:41:53;;;;;;;6.70;4.30;;;;;;;;;;4985055;28;20495;-65
2023/05/05 03:44:19;;;;;;;7.15;3.70;;;;;;;;;;4982072;28;20045;-65
2023/05/05 03:46:44;;;;;;;5.00;3.80;;;;;;;;;;4969362;28;20452;-66
2023/05/05 03:49:10;;;;;;;5.95;3.72;;;;;;;;;;4971440;28;20038;-67
2023/05/05 03:51:35;;;;;;;7.78;4.82;;;;;;;;;;4983763;28;20033;-67
2023/05/05 03:54:01;;;;;;;11.05;3.88;;;;;;;;;;4981520;28;20046;-67
2023/05/05 03:56:26;;;;;;;5.80;4.25;;;;;;;;;;4986105;28;20097;-66
2023/05/05 03:58:51;;;;;;;8.20;4.18;;;;;;;;;;4978433;28;20589;-67
2023/05/05 04:01:17;;;;;;;6.63;4.43;;;;;;;;;;4969524;28;20053;-67
2023/05/05 04:03:42;;;;;;;6.80;3.95;;;;;;;;;;4970902;28;20038;-66
2023/05/05 04:06:08;;;;;;;10.63;5.00;;;;;;;;;;4983106;28;20037;-66
2023/05/05 04:08:33;;;;;;;6.80;3.92;;;;;;;;;;4983854;28;20034;-67
2023/05/05 04:11:01;;;;;;;5.53;4.22;;;;;;;;;;4980684;28;20533;-67
2023/05/05 04:13:26;;;;;;;9.00;5.18;;;;;;;;;;4981950;28;20075;-68
2023/05/05 04:15:52;;;;;;;6.60;4.22;;;;;;;;;;4968248;28;20545;-67
2023/05/05 04:18:17;;;;;;;8.98;3.80;;;;;;;;;;4968958;28;20042;-67
2023/05/05 04:20:43;;;;;;;5.43;4.25;;;;;;;;;;4978642;28;20510;-67
2023/05/05 04:23:08;;;;;;;8.18;4.18;;;;;;;;;;4975223;28;20117;-68
2023/05/05 04:25:34;;;;;;;8.90;5.55;;;;;;;;;;4980434;28;20040;-67
2023/05/05 04:27:59;;;;;;;8.45;4.47;;;;;;;;;;4969959;28;20103;-67
2023/05/05 04:30:25;;;;;;;8.48;4.40;;;;;;;;;;4976174;28;20551;-67
2023/05/05 04:32:51;;;;;;;8.60;4.82;;;;;;;;;;4965843;28;20120;-67
2023/05/05 04:35:16;;;;;;;6.60;4.05;;;;;;;;;;4978253;28;20097;-67
2023/05/05 04:37:42;;;;;;;7.72;4.05;;;;;;;;;;4978576;28;20045;-67
2023/05/05 04:40:08;;;;;;;7.35;4.88;;;;;;;;;;4971701;28;20138;-67
2023/05/05 04:42:33;;;;;;;7.43;4.13;;;;;;;;;;4974282;28;20129;-69
2023/05/05 04:44:58;;;;;;;8.15;4.72;;;;;;;;;;4977725;28;20455;-66
2023/05/05 04:47:24;;;;;;;6.60;4.43;;;;;;;;;;4966513;28;20054;-65
2023/05/05 04:49:49;;;;;;;8.52;4.68;;;;;;;;;;4975094;28;20594;-65
2023/05/05 04:52:14;;;;;;;6.43;4.07;;;;;;;;;;4974090;28;20038;-65
2023/05/05 04:54:40;;;;;;;6.32;4.20;;;;;;;;;;4975937;28;20042;-69
2023/05/05 04:57:06;;;;;;;11.25;5.10;;;;;;;;;;4963986;28;21334;-69
2023/05/05 04:59:31;;;;;;;8.70;5.38;;;;;;;;;;4964710;28;20067;-66
2023/05/05 05:01:57;;;;;;;7.20;4.90;;;;;;;;;;4975715;28;20054;-65
2023/05/05 05:04:24;;;;;;;6.03;4.40;;;;;;;;;;4977615;28;20042;-66
2023/05/05 05:06:50;;;;;;;7.65;4.43;;;;;;;;;;4978538;28;20116;-65
2023/05/05 05:09:15;;;;;;;6.68;4.28;;;;;;;;;;4975640;28;20499;-66
2023/05/05 05:11:40;;;;;;;6.93;5.22;;;;;;;;;;4944743;28;20047;-66
2023/05/05 05:14:06;;;;;;;2.40;1.83;;;;;;;;;;4965238;28;20050;-69
2023/05/05 05:16:31;;;;;;;6.18;4.43;;;;;;;;;;4959736;28;20049;-66
2023/05/05 05:18:57;;;;;;;8.45;5.88;;;;;;;;;;4974464;28;20120;-66
2023/05/05 05:21:22;;;;;;;5.82;3.95;;;;;;;;;;4975964;28;20042;-67
2023/05/05 05:23:47;;;;;;;4.47;3.00;;;;;;;;;;4977485;28;20080;-66
2023/05/05 05:26:13;;;;;;;9.82;5.22;;;;;;;;;;4968574;28;20038;-64
2023/05/05 05:28:38;;;;;;;6.65;4.57;;;;;;;;;;4969243;28;20037;-66
2023/05/05 05:31:04;;;;;;;7.78;4.72;;;;;;;;;;4970515;28;20046;-65
2023/05/05 05:33:29;;;;;;;9.13;5.15;;;;;;;;;;4962941;28;20051;-65
2023/05/05 05:35:54;;;;;;;9.77;5.25;;;;;;;;;;4968810;28;20037;-65
2023/05/05 05:38:20;;;;;;;8.23;5.32;;;;;;;;;;4973119;28;20058;-66
2023/05/05 05:40:45;;;;;;;9.13;5.40;;;;;;;;;;4962581;28;20091;-65
2023/05/05 05:43:11;;;;;;;8.23;5.80;;;;;;;;;;4964989;28;20459;-65
2023/05/05 05:45:36;;;;;;;9.10;5.40;;;;;;;;;;4974366;28;20122;-65
2023/05/05 05:48:01;;;;;;;5.72;4.95;;;;;;;;;;4977096;28;20468;-65
2023/05/05 05:50:27;;;;;;;8.95;5.05;;;;;;;;;;4972190;28;20029;-65
2023/05/05 05:52:53;;;;;;;9.00;5.75;;;;;;;;;;4975299;28;20037;-65
2023/05/05 05:55:18;;;;;;;7.57;5.25;;;;;;;;;;4964020;28;20045;-66
2023/05/05 05:57:44;;;;;;;7.63;5.50;;;;;;;;;;4946051;28;20068;-66
2023/05/05 06:00:10;;;;;;;10.00;4.95;;;;;;;;;;4969198;28;20046;-70
2023/05/05 06:02:35;;;;;;;6.03;4.28;;;;;;;;;;4973126;28;20073;-70
2023/05/05 06:05:01;;;;;;;8.38;4.95;;;;;;;;;;4973381;28;20038;-69
2023/05/05 06:07:26;;;;;;;9.52;5.97;;;;;;;;;;4971636;28;20052;-70
2023/05/05 06:09:51;;;;;;;8.38;5.53;;;;;;;;;;4977260;28;20046;-70
2023/05/05 06:12:17;;;;;;;8.70;5.40;;;;;;;;;;4965533;28;20069;-70
2023/05/05 06:14:42;;;;;;;8.23;5.43;;;;;;;;;;4972157;28;20053;-70
2023/05/05 06:17:07;;;;;;;7.55;4.95;;;;;;;;;;4970438;28;20035;-70
2023/05/05 06:19:34;;;;;;;11.77;5.20;;;;;;;;;;4976113;28;20046;-70
2023/05/05 06:21:59;;;;;;;7.93;5.10;;;;;;;;;;4967080;28;20039;-70
2023/05/05 06:24:24;;;;;;;8.52;5.28;;;;;;;;;;4976115;28;21275;-70
2023/05/05 06:26:50;;;;;;;10.63;5.90;;;;;;;;;;4962271;28;20047;-69
2023/05/05 06:29:15;;;;;;;7.57;5.07;;;;;;;;;;4976369;28;20263;-69
2023/05/05 06:31:41;;;;;;;7.07;5.15;;;;;;;;;;4974533;28;20065;-69
2023/05/05 06:34:06;;;;;;;7.13;4.15;;;;;;;;;;4974127;28;20045;-69
2023/05/05 06:36:31;;;;;;;9.73;5.38;;;;;;;;;;4968513;28;20045;-69
2023/05/05 06:38:57;;;;;;;7.60;5.70;;;;;;;;;;4969901;28;20731;-70
2023/05/05 06:41:22;;;;;;;12.25;6.30;;;;;;;;;;4963022;28;21097;-69
2023/05/05 06:43:48;;;;;;;8.65;5.22;;;;;;;;;;4933903;28;20052;-69
2023/05/05 06:46:13;;;;;;;9.63;5.35;;;;;;;;;;4965863;28;20053;-69
2023/05/05 06:48:39;;;;;;;7.93;5.63;;;;;;;;;;4973538;28;20041;-69
2023/05/05 06:51:04;;;;;;;9.48;5.22;;;;;;;;;;4945802;28;20119;-69
2023/05/05 06:53:29;;;;;;;7.32;5.75;;;;;;;;;;4960595;28;20069;-69
2023/05/05 06:55:55;;;;;;;6.30;4.80;;;;;;;;;;4967766;28;20042;-69
2023/05/05 06:58:20;;;;;;;9.77;5.28;;;;;;;;;;4972127;28;20043;-69
2023/05/05 07:00:46;;;;;;;10.85;6.00;;;;;;;;;;4968860;28;20034;-69
2023/05/05 07:03:12;;;;;;;7.40;5.85;;;;;;;;;;4945237;28;20094;-69
2023/05/05 07:05:37;;;;;;;7.35;5.00;;;;;;;;;;4960704;28;20030;-69
2023/05/05 07:08:02;;;;;;;8.30;5.47;;;;;;;;;;4954797;28;20049;-69
2023/05/05 07:10:28;;;;;;;11.50;6.20;;;;;;;;;;4966798;28;20708;-69
2023/05/05 07:12:54;;;;;;;9.27;6.00;;;;;;;;;;4955440;28;21977;-69
2023/05/05 07:15:20;;;;;;;9.15;6.18;;;;;;;;;;4964977;28;20042;-69
2023/05/05 07:17:45;;;;;;;11.93;6.07;;;;;;;;;;4964801;28;20777;-69
2023/05/05 07:20:11;;;;;;;8.20;5.20;;;;;;;;;;4955708;28;20045;-69
2023/05/05 07:22:37;;;;;;;8.75;5.82;;;;;;;;;;4947560;28;21249;-69
2023/05/05 07:25:03;;;;;;;8.93;5.22;;;;;;;;;;4971195;28;20120;-69
2023/05/05 07:27:32;;;;;;;7.80;5.28;;;;;;;;;;4964073;28;20050;-70
2023/05/05 07:29:58;;;;;;;8.25;6.45;;;;;;;;;;4960478;28;20042;-69
2023/05/05 07:32:23;;;;;;;8.25;5.80;;;;;;;;;;4934816;28;20045;-70
2023/05/05 07:34:48;;;;;;;6.38;4.82;;;;;;;;;;4967323;28;20049;-70
2023/05/05 07:37:14;;;;;;;6.78;4.88;;;;;;;;;;4960602;28;20431;-69
2023/05/05 07:39:40;;;;;;;7.80;4.38;;;;;;;;;;4973450;28;20136;-69
2023/05/05 07:42:06;;;;;;;8.18;4.63;;;;;;;;;;4964838;28;20125;-69
2023/05/05 07:44:32;;;;;;;8.20;5.93;;;;;;;;;;4971677;28;20038;-70
2023/05/05 07:46:58;;;;;;;6.78;4.63;;;;;;;;;;4962301;28;20125;-69
2023/05/05 07:49:24;;;;;;;8.57;5.65;;;;;;;;;;4968983;28;20074;-70
2023/05/05 07:51:49;;;;;;;10.43;5.28;;;;;;;;;;4955627;28;20472;-69
2023/05/05 07:54:16;;;;;;;9.70;4.93;;;;;;;;;;4964463;28;20840;-69
2023/05/05 07:56:42;;;;;;;8.68;5.38;;;;;;;;;;4971966;28;20041;-69
2023/05/05 07:59:07;;;;;;;8.32;5.35;;;;;;;;;;4975587;28;20034;-69
2023/05/05 08:01:32;;;;;;;8.80;3.67;;;;;;;;;;4956933;28;20100;-69
2023/05/05 08:03:58;;;;;;;9.75;5.43;;;;;;;;;;4938318;28;20546;-69
2023/05/05 08:06:24;;;;;;;9.60;5.90;;;;;;;;;;4966759;28;20042;-70
2023/05/05 08:08:52;;;;;;;7.82;5.10;;;;;;;;;;4957489;28;20730;-69
2023/05/05 08:11:17;;;;;;;8.73;5.70;;;;;;;;;;4958513;28;20050;-69
2023/05/05 08:13:43;;;;;;;8.02;5.80;;;;;;;;;;4966344;28;20127;-69
2023/05/05 08:16:09;;;;;;;6.32;5.03;;;;;;;;;;4949785;28;20431;-69
2023/05/05 08:18:36;;;;;;;9.85;5.57;;;;;;;;;;4949636;28;20491;-69
2023/05/05 08:21:03;;;;;;;8.90;5.60;;;;;;;;;;4979541;28;20051;-69
2023/05/05 08:23:28;;;;;;;8.02;5.28;;;;;;;;;;4949392;28;20442;-70
2023/05/05 08:25:53;;;;;;;7.55;5.47;;;;;;;;;;4972751;28;20038;-69
2023/05/05 08:28:19;;;;;;;7.82;5.30;;;;;;;;;;4972712;28;20459;-70
2023/05/05 08:30:44;;;;;;;9.35;4.88;;;;;;;;;;4962436;28;20147;-70
2023/05/05 08:33:10;;;;;;;8.60;5.63;;;;;;;;;;4938171;28;20046;-69
2023/05/05 08:35:35;;;;;;;8.43;4.85;;;;;;;;;;4971993;28;20137;-70
2023/05/05 08:38:01;;;;;;;8.32;4.90;;;;;;;;;;4975010;28;20085;-69
2023/05/05 08:40:31;;;;;;;6.45;4.80;;;;;;;;;;4973601;28;20058;-70
2023/05/05 08:42:58;;;;;;;6.75;4.35;;;;;;;;;;4951643;28;20130;-70
2023/05/05 08:45:23;;;;;;;7.80;5.30;;;;;;;;;;4959580;28;20069;-70
2023/05/05 08:47:49;;;;;;;9.63;5.55;;;;;;;;;;4975007;28;20069;-70
2023/05/05 08:50:16;;;;;;;6.18;4.80;;;;;;;;;;4967450;28;20038;-70
2023/05/05 08:52:43;;;;;;;9.32;5.72;;;;;;;;;;4955555;28;20590;-70
2023/05/05 08:55:14;;;;;;;7.20;5.13;;;;;;;;;;4965370;28;20125;-70
2023/05/05 08:57:50;;;;;;;8.63;5.18;;;;;;;;;;4959600;28;20046;-70
2023/05/05 09:00:18;;;;;;;6.05;4.38;;;;;;;;;;4940473;28;20484;-70
2023/05/05 09:02:45;;;;;;;6.30;4.40;;;;;;;;;;4966298;28;20088;-70
2023/05/05 09:05:10;;;;;;;6.55;4.93;;;;;;;;;;4972934;28;20727;-70
2023/05/05 09:07:37;;;;;;;8.00;5.10;;;;;;;;;;4972628;28;20046;-70
2023/05/05 09:10:04;;;;;;;7.30;4.65;;;;;;;;;;4964089;28;20050;-70
2023/05/05 09:12:30;;;;;;;7.57;4.65;;;;;;;;;;4948038;28;20955;-70
2023/05/05 09:14:56;;;;;;;6.00;4.32;;;;;;;;;;4971981;28;20113;-70
2023/05/05 09:17:25;;;;;;;6.53;4.93;;;;;;;;;;4970327;28;20126;-70
2023/05/05 09:20:04;;;;;;;7.13;4.13;;;;;;;;;;4974056;28;20034;-70
2023/05/05 09:22:43;;;;;;;6.80;4.45;;;;;;;;;;4931569;28;20046;-70
2023/05/05 09:25:14;;;;;;;6.32;4.40;;;;;;;;;;4928272;28;20358;-70
2023/05/05 09:27:45;;;;;;;7.32;4.80;;;;;;;;;;4965682;28;20050;-70
2023/05/05 09:30:14;;;;;;;12.38;4.50;;;;;;;;;;4971181;28;20101;-70
2023/05/05 09:32:53;;;;;;;8.57;4.22;;;;;;;;;;4956043;28;20049;-70
2023/05/05 09:35:20;;;;;;;8.00;4.78;;;;;;;;;;4961998;28;20057;-70
2023/05/05 09:37:46;;;;;;;6.22;4.45;;;;;;;;;;4975800;28;20061;-70
2023/05/05 09:40:13;;;;;;;5.43;3.88;;;;;;;;;;4969150;28;20042;-70
2023/05/05 09:42:39;;;;;;;6.28;2.92;;;;;;;;;;4945852;28;21174;-70
2023/05/05 09:45:17;;;;;;;6.70;4.32;;;;;;;;;;4935910;28;20565;-70
2023/05/05 09:47:44;;;;;;;6.85;3.90;;;;;;;;;;4936271;28;20570;-70
2023/05/05 09:50:14;;;;;;;6.45;4.32;;;;;;;;;;4967014;28;20046;-70
2023/05/05 09:52:40;;;;;;;6.78;3.90;;;;;;;;;;4956704;28;20057;-70
2023/05/05 09:55:15;;;;;;;5.07;3.28;;;;;;;;;;4964079;28;20043;-70
2023/05/05 09:57:41;;;;;;;5.75;4.03;;;;;;;;;;4969253;28;20037;-70
2023/05/05 10:00:07;;;;;;;6.32;4.40;;;;;;;;;;4951723;28;20046;-70
2023/05/05 10:02:35;;;;;;;6.07;3.83;;;;;;;;;;4953492;28;20069;-70
2023/05/05 10:05:10;;;;;;;6.53;4.05;;;;;;;;;;4950228;28;20137;-70
2023/05/05 10:07:38;;;;;;;7.20;5.22;;;;;;;;;;4970449;28;20045;-70
2023/05/05 10:10:05;;;;;;;6.10;4.30;;;;;;;;;;4967174;28;20058;-70
2023/05/05 10:12:31;;;;;;;8.35;4.60;;;;;;;;;;4936859;28;20269;-70
2023/05/05 10:14:59;;;;;;;5.63;3.80;;;;;;;;;;4974612;28;20089;-70
2023/05/05 10:17:29;;;;;;;4.90;3.30;;;;;;;;;;4972913;28;22088;-70
2023/05/05 10:19:56;;;;;;;6.40;4.47;;;;;;;;;;4964661;28;21447;-70
2023/05/05 10:22:22;;;;;;;7.57;4.25;;;;;;;;;;4943104;28;20042;-70
2023/05/05 10:25:01;;;;;;;10.93;4.75;;;;;;;;;;4961419;28;20038;-71
2023/05/05 10:27:28;;;;;;;11.23;4.50;;;;;;;;;;4963211;28;20062;-70
2023/05/05 10:30:04;;;;;;;7.43;4.32;;;;;;;;;;4969427;28;20073;-70
2023/05/05 10:32:36;;;;;;;8.68;4.00;;;;;;;;;;4961295;28;20038;-70
2023/05/05 10:35:03;;;;;;;6.03;4.13;;;;;;;;;;4970460;28;20050;-70
2023/05/05 10:37:29;;;;;;;8.32;4.18;;;;;;;;;;4958990;28;20124;-70
2023/05/05 10:39:56;;;;;;;6.72;4.20;;;;;;;;;;4965748;28;20081;-71
2023/05/05 10:42:22;;;;;;;5.30;3.47;;;;;;;;;;4947686;28;20042;-70
2023/05/05 10:44:48;;;;;;;7.07;3.70;;;;;;;;;;4968046;28;20045;-71
2023/05/05 10:47:18;;;;;;;6.38;4.03;;;;;;;;;;4968364;28;20042;-69
2023/05/05 10:50:05;;;;;;;6.70;4.07;;;;;;;;;;4976739;28;20185;-69
2023/05/05 10:52:40;;;;;;;9.00;3.97;;;;;;;;;;4915555;28;20050;-70
2023/05/05 10:55:16;;;;;;;5.90;3.95;;;;;;;;;;4954849;28;20045;-69
2023/05/05 10:57:43;;;;;;;5.22;3.95;;;;;;;;;;4952718;28;20038;-69
2023/05/05 11:00:30;;;;;;;6.13;4.10;;;;;;;;;;4949790;28;20051;-70
2023/05/05 11:03:33;;;;;;;6.05;4.30;;;;;;;;;;4909654;28;20055;-70
2023/05/05 11:06:07;;;;;;;8.27;4.10;;;;;;;;;;4936779;28;20046;-69
2023/05/05 11:08:37;;;;;;;7.47;4.57;;;;;;;;;;4949151;28;20100;-69
2023/05/05 11:11:03;;;;;;;6.75;4.50;;;;;;;;;;4937548;28;20109;-69
2023/05/05 11:13:29;;;;;;;6.55;4.40;;;;;;;;;;4931789;28;20484;-69
2023/05/05 11:15:56;;;;;;;7.70;4.65;;;;;;;;;;4952281;28;20050;-70
2023/05/05 11:18:38;;;;;;;7.15;4.82;;;;;;;;;;4960700;28;20634;-70
2023/05/05 11:21:14;;;;;;;6.90;4.35;;;;;;;;;;4968570;28;20098;-70
2023/05/05 11:23:41;;;;;;;7.63;4.60;;;;;;;;;;4920867;28;20062;-70
2023/05/05 11:26:06;;;;;;;5.85;4.68;;;;;;;;;;4965527;28;20487;-69
2023/05/05 11:28:31;;;;;;;7.70;5.13;;;;;;;;;;4955926;28;20084;-70
2023/05/05 11:30:57;;;;;;;8.05;5.32;;;;;;;;;;4947536;28;20776;-70
2023/05/05 11:33:27;;;;;;;6.35;4.32;;;;;;;;;;4934939;28;20067;-70
2023/05/05 11:36:02;;;;;;;7.20;4.65;;;;;;;;;;4948988;28;20127;-70
2023/05/05 11:38:58;;;;;;;6.30;4.90;;;;;;;;;;4959274;28;20045;-70
2023/05/05 11:41:30;;;;;;;7.57;4.50;;;;;;;;;;4969250;28;20482;-70
2023/05/05 11:44:09;;;;;;;6.90;4.85;;;;;;;;;;4946908;28;20138;-70
2023/05/05 11:46:35;;;;;;;7.40;4.88;;;;;;;;;;4924734;28;20586;-70
2023/05/05 11:49:00;;;;;;;6.72;4.75;;;;;;;;;;4975831;28;20045;-70
2023/05/05 11:51:27;;;;;;;7.40;5.20;;;;;;;;;;4937193;28;20307;-70
2023/05/05 11:53:52;;;;;;;5.95;3.92;;;;;;;;;;4966365;28;20034;-70
2023/05/05 11:56:20;;;;;;;8.40;4.70;;;;;;;;;;4973601;28;20064;-70
2023/05/05 11:58:47;;;;;;;7.30;4.75;;;;;;;;;;4954783;28;20033;-70
2023/05/05 12:01:13;;;;;;;8.35;5.18;;;;;;;;;;4972778;28;20078;-70
2023/05/05 12:03:39;;;;;;;6.90;4.93;;;;;;;;;;4951232;28;20109;-70
2023/05/05 12:06:06;;;;;;;6.95;4.35;;;;;;;;;;4963277;28;20969;-71
2023/05/05 12:08:39;;;;;;;6.53;5.30;;;;;;;;;;4960118;28;20057;-70
2023/05/05 12:11:07;;;;;;;5.97;4.55;;;;;;;;;;4959750;28;20039;-70
2023/05/05 12:13:33;;;;;;;9.95;5.20;;;;;;;;;;4936818;28;20043;-70
2023/05/05 12:16:18;;;;;;;5.45;3.95;;;;;;;;;;4941241;28;20554;-70
2023/05/05 12:18:43;;;;;;;7.47;4.55;;;;;;;;;;4958303;28;20038;-70
2023/05/05 12:21:19;;;;;;;8.35;4.40;;;;;;;;;;4953130;28;20135;-70
2023/05/05 12:23:45;;;;;;;7.97;5.30;;;;;;;;;;4923883;28;20058;-71
2023/05/05 12:26:31;;;;;;;5.38;4.15;;;;;;;;;;4973775;28;20038;-70
2023/05/05 12:28:57;;;;;;;6.55;4.63;;;;;;;;;;4971173;28;20581;-70
2023/05/05 12:31:40;;;;;;;5.85;4.32;;;;;;;;;;4966120;28;20038;-70
2023/05/05 12:34:07;;;;;;;7.50;4.35;;;;;;;;;;4940770;28;20050;-70
2023/05/05 12:36:34;;;;;;;6.07;4.43;;;;;;;;;;4974287;28;20042;-70
2023/05/05 12:39:00;;;;;;;6.28;4.47;;;;;;;;;;4979771;28;20037;-70
2023/05/05 12:41:25;;;;;;;5.82;4.65;;;;;;;;;;4969174;28;20042;-70
2023/05/05 12:43:55;;;;;;;7.07;4.97;;;;;;;;;;4966693;28;20042;-70
2023/05/05 12:46:22;;;;;;;7.10;4.53;;;;;;;;;;4972602;28;20037;-71
2023/05/05 12:48:59;;;;;;;7.22;4.90;;;;;;;;;;4945746;28;20041;-71
2023/05/05 12:51:24;;;;;;;6.68;5.28;;;;;;;;;;4963971;28;20537;-70
2023/05/05 12:54:06;;;;;;;5.25;3.08;;;;;;;;;;4966152;28;20046;-70
2023/05/05 12:56:45;;;;;;;5.93;3.70;;;;;;;;;;4972735;28;20125;-70
2023/05/05 12:59:27;;;;;;;7.53;4.55;;;;;;;;;;4917497;28;20145;-70
2023/05/05 13:01:58;;;;;;;7.50;4.60;;;;;;;;;;4929809;28;20067;-70
2023/05/05 13:04:25;;;;;;;5.03;4.32;;;;;;;;;;4941520;28;20038;-70
2023/05/05 13:07:11;;;;;;;6.55;4.57;;;;;;;;;;4970948;28;20128;-70
2023/05/05 13:09:37;;;;;;;5.68;4.50;;;;;;;;;;4935837;28;20115;-70
2023/05/05 13:12:03;;;;;;;5.53;4.22;;;;;;;;;;4931846;28;20110;-70
2023/05/05 13:14:32;;;;;;;7.43;5.78;;;;;;;;;;4944064;28;20050;-70
2023/05/05 13:16:57;;;;;;;6.22;5.00;;;;;;;;;;4955766;28;20432;-70
2023/05/05 13:19:23;;;;;;;5.28;3.83;;;;;;;;;;4951190;28;20046;-70
2023/05/05 13:21:50;;;;;;;6.60;5.00;;;;;;;;;;4920562;28;20035;-70
2023/05/05 13:24:16;;;;;;;7.57;4.78;;;;;;;;;;4951938;28;20695;-70
2023/05/05 13:26:41;;;;;;;7.53;5.30;;;;;;;;;;4949340;28;20082;-70
2023/05/05 13:29:06;;;;;;;8.00;4.63;;;;;;;;;;4948233;28;20539;-69
2023/05/05 13:31:32;;;;;;;5.30;4.13;;;;;;;;;;4927582;28;20149;-70
2023/05/05 13:33:57;;;;;;;6.05;4.80;;;;;;;;;;4938784;28;20043;-70
2023/05/05 13:36:23;;;;;;;5.90;4.40;;;;;;;;;;4930099;28;20054;-70
2023/05/05 13:38:48;;;;;;;5.25;3.92;;;;;;;;;;4974227;28;20061;-71
2023/05/05 13:41:13;;;;;;;6.63;4.32;;;;;;;;;;4962310;28;20064;-72
2023/05/05 13:43:39;;;;;;;6.97;4.78;;;;;;;;;;4941311;28;20125;-69
2023/05/05 13:46:07;;;;;;;6.88;4.75;;;;;;;;;;4964982;28;20030;-70
2023/05/05 13:48:32;;;;;;;6.22;5.18;;;;;;;;;;4969219;28;20046;-70
2023/05/05 13:50:58;;;;;;;6.32;4.18;;;;;;;;;;4942494;28;20667;-69
2023/05/05 13:53:25;;;;;;;6.28;4.75;;;;;;;;;;4942194;28;20084;-70
2023/05/05 13:55:52;;;;;;;5.82;4.40;;;;;;;;;;4946880;28;21148;-69
2023/05/05 13:58:18;;;;;;;5.30;4.68;;;;;;;;;;4945824;28;20789;-70
2023/05/05 14:00:43;;;;;;;6.65;4.80;;;;;;;;;;4926979;28;20640;-70
2023/05/05 14:03:09;;;;;;;6.78;4.88;;;;;;;;;;4945055;28;20039;-69
2023/05/05 14:05:36;;;;;;;7.00;4.65;;;;;;;;;;4937681;28;21032;-71
2023/05/05 14:08:01;;;;;;;7.65;4.18;;;;;;;;;;4959423;28;20084;-70
2023/05/05 14:10:29;;;;;;;6.50;4.05;;;;;;;;;;4954261;28;20129;-69
2023/05/05 14:12:55;;;;;;;5.35;4.35;;;;;;;;;;4951713;28;20088;-71
2023/05/05 14:15:21;;;;;;;6.85;4.70;;;;;;;;;;4967682;28;20046;-69
2023/05/05 14:17:46;;;;;;;6.80;4.63;;;;;;;;;;4948877;28;20046;-69
2023/05/05 14:20:11;;;;;;;7.07;4.97;;;;;;;;;;4966497;28;20143;-70
2023/05/05 14:22:37;;;;;;;5.50;4.40;;;;;;;;;;4945773;28;20067;-70
2023/05/05 14:25:03;;;;;;;5.22;4.43;;;;;;;;;;4948819;28;20038;-70
2023/05/05 14:27:29;;;;;;;7.45;5.30;;;;;;;;;;4944542;28;20038;-70
2023/05/05 14:29:54;;;;;;;6.63;4.50;;;;;;;;;;4960976;28;20038;-70
2023/05/05 14:32:20;;;;;;;7.10;4.90;;;;;;;;;;4901056;28;20035;-70
2023/05/05 14:34:47;;;;;;;5.80;4.50;;;;;;;;;;4957581;28;20035;-69
2023/05/05 14:37:12;;;;;;;6.63;4.53;;;;;;;;;;4954471;28;20588;-71
2023/05/05 14:39:37;;;;;;;8.13;4.63;;;;;;;;;;4945507;28;20050;-70
2023/05/05 14:42:03;;;;;;;7.50;4.55;;;;;;;;;;4933885;28;20444;-70
2023/05/05 14:44:28;;;;;;;6.15;4.20;;;;;;;;;;4960913;28;20038;-70
2023/05/05 14:46:54;;;;;;;6.78;5.22;;;;;;;;;;4939493;28;20541;-70
2023/05/05 14:49:19;;;;;;;5.60;4.35;;;;;;;;;;4968795;28;20073;-70